Time;durP1;ratioP1;P1;durP2;ratioP2;P2;SDS_P1;SDS_P2;PMS_P1;PMS_P2;Temp;Humidity;BMP_temperature;BMP_pressure;BME280_temperature;BME280_humidity;BME280_pressure;Samples;Min_cycle;Max_cycle;Signal;HPM_P1;HPM_P2
2020/12/08 00:02:05;;;;;;;8.97;8.17;;;7.10;59.30;;;;;;5007200;28;20259;-60
2020/12/08 00:04:34;;;;;;;8.83;8.03;;;7.10;59.30;;;;;;5014107;28;20242;-60
2020/12/08 00:07:02;;;;;;;8.10;7.40;;;7.10;59.20;;;;;;5010029;28;20599;-60
2020/12/08 00:09:29;;;;;;;8.33;7.63;;;7.10;59.10;;;;;;5010340;28;20222;-61
2020/12/08 00:11:56;;;;;;;8.70;7.90;;;7.10;59.10;;;;;;5007643;28;20214;-61
2020/12/08 00:14:22;;;;;;;8.57;7.87;;;7.10;59.10;;;;;;5012511;28;20226;-60
2020/12/08 00:16:49;;;;;;;7.17;6.57;;;7.10;59.00;;;;;;5009557;28;20206;-61
2020/12/08 00:19:15;;;;;;;7.53;6.93;;;7.20;59.10;;;;;;5005885;28;20199;-61
2020/12/08 00:21:44;;;;;;;7.87;7.20;;;7.20;59.00;;;;;;5003441;28;22806;-58
2020/12/08 00:24:11;;;;;;;7.43;6.83;;;7.20;58.90;;;;;;5013510;28;20242;-61
2020/12/08 00:26:39;;;;;;;7.07;6.47;;;7.20;58.80;;;;;;5010365;28;20207;-61
2020/12/08 00:29:07;;;;;;;8.07;7.37;;;7.10;58.70;;;;;;5009525;28;20211;-60
2020/12/08 00:31:35;;;;;;;7.57;6.87;;;7.10;58.70;;;;;;4998931;28;20682;-61
2020/12/08 00:34:01;;;;;;;7.97;7.30;;;7.10;58.70;;;;;;5011832;28;20318;-59
2020/12/08 00:36:28;;;;;;;8.43;7.73;;;7.10;58.80;;;;;;5011813;28;20214;-60
2020/12/08 00:38:55;;;;;;;8.20;7.50;;;7.10;58.90;;;;;;5010940;28;20237;-60
2020/12/08 00:41:23;;;;;;;7.70;7.00;;;7.10;59.00;;;;;;5007270;28;20369;-59
2020/12/08 00:43:51;;;;;;;8.63;7.93;;;7.10;59.00;;;;;;5012061;28;20235;-62
2020/12/08 00:46:20;;;;;;;8.03;7.33;;;7.10;59.00;;;;;;5011913;28;20199;-61
2020/12/08 00:48:47;;;;;;;7.73;7.10;;;7.10;59.00;;;;;;5009928;28;20206;-63
2020/12/08 00:51:15;;;;;;;8.37;7.67;;;7.10;59.00;;;;;;5008906;28;20222;-62
2020/12/08 00:53:41;;;;;;;7.77;7.17;;;7.20;59.10;;;;;;5004784;28;20227;-61
2020/12/08 00:56:10;;;;;;;8.20;7.50;;;7.10;59.00;;;;;;5009399;28;20229;-61
2020/12/08 00:58:36;;;;;;;8.47;7.67;;;7.20;59.10;;;;;;5007728;28;20952;-61
2020/12/08 01:01:05;;;;;;;7.80;7.20;;;7.20;59.10;;;;;;5010297;28;20272;-61
2020/12/08 01:03:33;;;;;;;7.10;6.50;;;7.20;59.00;;;;;;5010041;28;20690;-61
2020/12/08 01:06:02;;;;;;;7.63;7.00;;;7.20;58.70;;;;;;5008471;28;20292;-61
2020/12/08 01:08:29;;;;;;;7.57;6.93;;;7.20;58.60;;;;;;5010278;28;20229;-58
2020/12/08 01:10:57;;;;;;;7.77;7.13;;;7.20;58.50;;;;;;5011916;28;20213;-59
2020/12/08 01:13:23;;;;;;;7.77;7.07;;;7.20;58.50;;;;;;5011282;28;20696;-61
2020/12/08 01:15:50;;;;;;;7.60;6.93;;;7.10;58.50;;;;;;5007077;28;20218;-59
2020/12/08 01:18:17;;;;;;;7.70;7.00;;;7.10;58.50;;;;;;5005777;28;20258;-59
2020/12/08 01:20:45;;;;;;;7.10;6.47;;;7.00;59.10;;;;;;5001552;28;20941;-59
2020/12/08 01:23:17;;;;;;;8.13;7.43;;;7.00;58.60;;;;;;5001760;28;20218;-60
2020/12/08 01:25:43;;;;;;;7.50;6.90;;;7.00;58.70;;;;;;5004066;28;20226;-57
2020/12/08 01:28:09;;;;;;;7.50;6.90;;;6.90;58.60;;;;;;5011033;28;20222;-58
2020/12/08 01:30:36;;;;;;;8.00;7.30;;;6.90;58.70;;;;;;5013006;28;20212;-61
2020/12/08 01:33:02;;;;;;;7.33;6.73;;;6.90;58.70;;;;;;5012742;28;20226;-61
2020/12/08 01:35:30;;;;;;;7.00;6.40;;;6.90;58.60;;;;;;5013723;28;20222;-60
2020/12/08 01:37:56;;;;;;;7.60;6.83;;;6.90;58.60;;;;;;5012319;28;20211;-60
2020/12/08 01:40:22;;;;;;;8.17;7.47;;;6.90;58.50;;;;;;5014343;28;20222;-61
2020/12/08 01:42:49;;;;;;;7.40;6.80;;;6.80;58.50;;;;;;5009168;28;20230;-58
2020/12/08 01:45:15;;;;;;;6.60;6.10;;;6.80;58.50;;;;;;5010633;28;20227;-60
2020/12/08 01:47:42;;;;;;;6.80;6.30;;;6.70;58.50;;;;;;5010392;28;20216;-60
2020/12/08 01:50:09;;;;;;;7.30;6.70;;;6.70;58.60;;;;;;5016704;28;20591;-61
2020/12/08 01:52:36;;;;;;;7.83;7.13;;;6.70;58.60;;;;;;5013484;28;20202;-61
2020/12/08 01:55:04;;;;;;;7.93;7.23;;;6.60;58.70;;;;;;5013464;28;20230;-62
2020/12/08 01:57:31;;;;;;;7.93;7.23;;;6.60;58.80;;;;;;5018442;28;20238;-60
2020/12/08 01:59:57;;;;;;;7.13;6.53;;;6.50;58.70;;;;;;5017696;28;20206;-61
2020/12/08 02:02:25;;;;;;;7.57;6.87;;;6.50;58.70;;;;;;5010419;28;20223;-61
2020/12/08 02:04:52;;;;;;;7.30;6.70;;;6.50;58.80;;;;;;5017443;28;20614;-62
2020/12/08 02:07:18;;;;;;;7.80;7.20;;;6.40;58.90;;;;;;5014291;28;20652;-62
2020/12/08 02:09:45;;;;;;;7.70;7.03;;;6.40;59.00;;;;;;5011893;28;20663;-62
2020/12/08 02:12:12;;;;;;;8.47;7.77;;;6.40;59.10;;;;;;5013917;28;20308;-62
2020/12/08 02:14:38;;;;;;;7.80;7.13;;;6.40;59.10;;;;;;5013250;28;20237;-62
2020/12/08 02:17:04;;;;;;;7.30;6.70;;;6.40;59.00;;;;;;5011962;28;20324;-61
2020/12/08 02:19:32;;;;;;;7.37;6.77;;;6.30;59.00;;;;;;5016373;28;20225;-60
2020/12/08 02:21:59;;;;;;;7.07;6.47;;;6.30;58.90;;;;;;5009074;28;20223;-61
2020/12/08 02:24:26;;;;;;;7.73;7.03;;;6.30;59.00;;;;;;5016904;28;20320;-60
2020/12/08 02:26:52;;;;;;;7.60;6.90;;;6.30;59.10;;;;;;5016799;28;20229;-63
2020/12/08 02:29:19;;;;;;;7.77;7.07;;;6.30;59.10;;;;;;5017772;28;20209;-61
2020/12/08 02:31:45;;;;;;;7.17;6.53;;;6.30;59.10;;;;;;5006427;28;20233;-61
2020/12/08 02:34:12;;;;;;;7.73;7.03;;;6.30;59.20;;;;;;5012613;28;20230;-61
2020/12/08 02:36:38;;;;;;;7.00;6.37;;;6.20;59.20;;;;;;5015915;28;20230;-61
2020/12/08 02:39:05;;;;;;;7.00;6.50;;;6.20;59.20;;;;;;5012148;28;20226;-62
2020/12/08 02:41:32;;;;;;;7.03;6.43;;;6.20;59.20;;;;;;5012328;28;20230;-61
2020/12/08 02:43:58;;;;;;;7.10;6.50;;;6.20;59.20;;;;;;5019483;28;20253;-63
2020/12/08 02:46:24;;;;;;;6.13;5.63;;;6.20;59.20;;;;;;5013282;28;20335;-61
2020/12/08 02:48:51;;;;;;;6.47;5.97;;;6.20;59.10;;;;;;5016159;28;20680;-61
2020/12/08 02:51:18;;;;;;;6.90;6.30;;;6.20;59.10;;;;;;5014489;28;20206;-60
2020/12/08 02:53:45;;;;;;;6.47;5.90;;;6.20;59.00;;;;;;5019377;28;20219;-61
2020/12/08 02:56:13;;;;;;;6.07;5.57;;;6.20;58.80;;;;;;5012184;28;20218;-61
2020/12/08 02:58:39;;;;;;;5.93;5.43;;;6.10;58.60;;;;;;5015467;28;20734;-62
2020/12/08 03:01:06;;;;;;;6.63;6.03;;;6.10;58.60;;;;;;5011485;28;20675;-60
2020/12/08 03:03:32;;;;;;;6.13;5.63;;;6.00;58.80;;;;;;5010318;28;20257;-59
2020/12/08 03:05:59;;;;;;;7.03;6.43;;;5.90;58.60;;;;;;5018766;28;20210;-61
2020/12/08 03:08:25;;;;;;;7.17;6.57;;;5.90;58.70;;;;;;5011068;28;20225;-61
2020/12/08 03:10:51;;;;;;;7.13;6.53;;;5.80;58.80;;;;;;5012907;28;20236;-60
2020/12/08 03:13:19;;;;;;;6.90;6.30;;;5.80;58.80;;;;;;5009608;28;20209;-58
2020/12/08 03:15:45;;;;;;;7.20;6.60;;;5.80;58.80;;;;;;5012596;28;21943;-58
2020/12/08 03:18:11;;;;;;;7.20;6.60;;;5.70;58.80;;;;;;5010576;28;20670;-61
2020/12/08 03:20:38;;;;;;;7.53;6.93;;;5.70;58.90;;;;;;5015175;28;20218;-61
2020/12/08 03:23:04;;;;;;;8.37;7.63;;;5.60;58.90;;;;;;5013849;28;20288;-59
2020/12/08 03:25:31;;;;;;;9.47;8.67;;;5.60;58.90;;;;;;5013455;28;20261;-58
2020/12/08 03:27:57;;;;;;;10.03;8.57;;;5.60;59.10;;;;;;5012903;28;20217;-60
2020/12/08 03:30:24;;;;;;;10.33;8.07;;;5.60;59.10;;;;;;5006651;28;20226;-60
2020/12/08 03:32:50;;;;;;;8.53;7.73;;;5.60;59.10;;;;;;5008894;28;20692;-60
2020/12/08 03:35:17;;;;;;;9.40;7.57;;;5.50;59.10;;;;;;5014059;28;20218;-60
2020/12/08 03:37:43;;;;;;;9.57;8.20;;;5.50;59.20;;;;;;5013915;28;20203;-60
2020/12/08 03:40:10;;;;;;;9.70;8.80;;;5.50;59.20;;;;;;5011965;28;20318;-60
2020/12/08 03:42:36;;;;;;;10.63;9.67;;;5.50;59.30;;;;;;5009071;28;20267;-60
2020/12/08 03:45:03;;;;;;;9.53;8.70;;;5.50;59.40;;;;;;5014573;28;20773;-57
2020/12/08 03:47:31;;;;;;;9.23;8.30;;;5.50;59.50;;;;;;5006625;28;20202;-61
2020/12/08 03:49:58;;;;;;;7.73;7.03;;;5.50;59.60;;;;;;5011814;28;20210;-60
2020/12/08 03:52:24;;;;;;;8.40;7.63;;;5.50;59.60;;;;;;5008780;28;20217;-60
2020/12/08 03:54:50;;;;;;;7.73;6.90;;;5.50;59.70;;;;;;5014012;28;20230;-60
2020/12/08 03:57:17;;;;;;;7.03;6.33;;;5.40;59.60;;;;;;5008425;28;20215;-61
2020/12/08 03:59:43;;;;;;;7.03;6.43;;;5.40;59.70;;;;;;5012478;28;20234;-58
2020/12/08 04:02:09;;;;;;;7.37;6.70;;;5.50;59.80;;;;;;5014030;28;20234;-60
2020/12/08 04:04:36;;;;;;;7.67;6.87;;;5.50;59.80;;;;;;5013817;28;20250;-59
2020/12/08 04:07:03;;;;;;;8.90;6.93;;;5.50;59.80;;;;;;5009455;28;20229;-58
2020/12/08 04:09:29;;;;;;;7.70;6.00;;;5.50;59.60;;;;;;5012721;28;20215;-62
2020/12/08 04:11:56;;;;;;;10.23;6.33;;;5.50;59.60;;;;;;5010366;28;20218;-61
2020/12/08 04:14:22;;;;;;;7.33;6.17;;;5.50;59.60;;;;;;5011346;28;20234;-61
2020/12/08 04:16:48;;;;;;;8.03;6.47;;;5.50;59.70;;;;;;5014509;28;20207;-63
2020/12/08 04:19:16;;;;;;;6.93;6.27;;;5.50;59.90;;;;;;5013627;28;20698;-61
2020/12/08 04:21:44;;;;;;;7.00;6.40;;;5.50;59.80;;;;;;5010029;28;20317;-62
2020/12/08 04:24:10;;;;;;;6.50;5.70;;;5.50;59.80;;;;;;5014506;28;20242;-62
2020/12/08 04:26:36;;;;;;;6.47;5.87;;;5.60;59.80;;;;;;5013050;28;20206;-59
2020/12/08 04:29:03;;;;;;;6.50;6.00;;;5.60;59.80;;;;;;5009861;28;20210;-60
2020/12/08 04:31:29;;;;;;;6.33;5.73;;;5.60;59.60;;;;;;5008227;28;20226;-61
2020/12/08 04:33:56;;;;;;;6.20;5.63;;;5.60;59.70;;;;;;5012967;28;20230;-60
2020/12/08 04:36:24;;;;;;;6.03;5.53;;;5.60;59.60;;;;;;5013708;28;20352;-61
2020/12/08 04:38:51;;;;;;;8.67;6.03;;;5.60;59.70;;;;;;5013634;28;20206;-61
2020/12/08 04:41:24;;;;;;;6.60;5.47;;;5.60;59.60;;;;;;5008782;28;20217;-61
2020/12/08 04:43:51;;;;;;;5.97;5.47;;;5.60;59.60;;;;;;5012441;28;20668;-61
2020/12/08 04:46:19;;;;;;;5.47;5.00;;;5.60;59.50;;;;;;5012840;28;20284;-61
2020/12/08 04:48:47;;;;;;;5.70;5.20;;;5.60;59.50;;;;;;5011964;28;20217;-62
2020/12/08 04:51:14;;;;;;;5.83;5.27;;;5.50;59.30;;;;;;5006941;28;20264;-62
2020/12/08 04:53:41;;;;;;;5.67;5.17;;;5.50;59.30;;;;;;5011267;28;20714;-61
2020/12/08 04:56:09;;;;;;;7.33;5.77;;;5.50;59.20;;;;;;5004589;28;20765;-60
2020/12/08 04:58:35;;;;;;;5.50;5.00;;;5.40;59.30;;;;;;5016454;28;20218;-62
2020/12/08 05:01:02;;;;;;;5.20;4.70;;;5.40;59.20;;;;;;5012322;28;20203;-60
2020/12/08 05:03:30;;;;;;;6.37;5.50;;;5.30;59.00;;;;;;5011442;28;20305;-62
2020/12/08 05:05:56;;;;;;;6.40;5.33;;;5.30;59.00;;;;;;5012586;28;20215;-63
2020/12/08 05:08:23;;;;;;;6.57;5.10;;;5.30;59.00;;;;;;5014281;28;20698;-62
2020/12/08 05:10:49;;;;;;;7.10;5.53;;;5.20;59.10;;;;;;5017125;28;20203;-60
2020/12/08 05:13:19;;;;;;;5.37;4.90;;;5.20;59.10;;;;;;5016683;28;21130;-58
2020/12/08 05:16:02;;;;;;;5.63;5.13;;;5.10;59.20;;;;;;5008280;28;20722;-60
2020/12/08 05:18:31;;;;;;;5.33;4.93;;;5.10;59.50;;;;;;5014740;28;20298;-61
2020/12/08 05:21:08;;;;;;;5.90;5.40;;;5.10;59.50;;;;;;5014052;28;20222;-61
2020/12/08 05:23:42;;;;;;;5.13;4.70;;;5.10;59.60;;;;;;5014353;28;20598;-61
2020/12/08 05:26:09;;;;;;;5.93;5.37;;;5.00;59.60;;;;;;5009947;28;20207;-61
2020/12/08 05:28:37;;;;;;;5.20;4.80;;;5.00;59.60;;;;;;5003699;28;20218;-58
2020/12/08 05:31:04;;;;;;;5.57;5.07;;;5.00;59.50;;;;;;5007153;28;20207;-59
2020/12/08 05:33:31;;;;;;;5.03;4.63;;;5.00;59.40;;;;;;5014656;28;20194;-58
2020/12/08 05:36:00;;;;;;;5.50;5.07;;;5.00;59.40;;;;;;5017520;28;20203;-60
2020/12/08 05:38:34;;;;;;;5.97;5.47;;;5.00;59.30;;;;;;5015760;28;20829;-60
2020/12/08 05:41:03;;;;;;;5.83;5.23;;;5.00;59.20;;;;;;5015585;28;20233;-60
2020/12/08 05:43:38;;;;;;;5.33;4.90;;;4.90;59.00;;;;;;5014037;28;20276;-60
2020/12/08 05:46:05;;;;;;;6.00;5.50;;;4.90;59.10;;;;;;5014737;28;20603;-59
2020/12/08 05:48:33;;;;;;;5.23;4.83;;;4.90;58.90;;;;;;5015044;28;20202;-60
2020/12/08 05:51:03;;;;;;;6.47;5.87;;;4.80;58.90;;;;;;5014864;28;20299;-62
2020/12/08 05:53:30;;;;;;;6.07;5.57;;;4.80;59.00;;;;;;5015220;28;20233;-60
2020/12/08 05:56:05;;;;;;;5.77;5.27;;;4.80;59.00;;;;;;5017482;28;20214;-59
2020/12/08 05:58:32;;;;;;;5.13;4.73;;;4.70;59.00;;;;;;5007351;28;20213;-60
2020/12/08 06:01:03;;;;;;;4.67;4.27;;;4.60;59.00;;;;;;5014392;28;20221;-61
2020/12/08 06:03:30;;;;;;;4.77;4.37;;;4.60;59.30;;;;;;5014934;28;20227;-58
2020/12/08 06:06:07;;;;;;;4.77;4.37;;;4.60;59.40;;;;;;5019258;28;20215;-55
2020/12/08 06:08:42;;;;;;;4.67;4.27;;;4.60;59.70;;;;;;5014979;28;20207;-60
2020/12/08 06:11:09;;;;;;;4.37;4.00;;;4.60;59.80;;;;;;5010961;28;20202;-58
2020/12/08 06:13:36;;;;;;;4.60;4.30;;;4.60;59.80;;;;;;5014114;28;20265;-61
2020/12/08 06:16:15;;;;;;;5.10;4.70;;;4.70;59.90;;;;;;5012833;28;20674;-58
2020/12/08 06:18:42;;;;;;;5.10;4.70;;;4.70;60.00;;;;;;5014263;28;20203;-59
2020/12/08 06:21:24;;;;;;;5.30;4.87;;;4.70;59.90;;;;;;5016321;28;20206;-60
2020/12/08 06:23:53;;;;;;;5.67;5.23;;;4.80;60.10;;;;;;5010773;28;20242;-61
2020/12/08 06:26:24;;;;;;;5.37;4.97;;;4.80;59.90;;;;;;5011582;28;20206;-59
2020/12/08 06:28:51;;;;;;;4.93;4.53;;;4.90;59.80;;;;;;5018233;28;20210;-60
2020/12/08 06:31:18;;;;;;;5.60;5.20;;;4.90;59.70;;;;;;5014433;28;20215;-62
2020/12/08 06:33:47;;;;;;;5.10;4.70;;;4.90;59.70;;;;;;5015044;28;20226;-62
2020/12/08 06:36:13;;;;;;;5.10;4.70;;;4.90;59.70;;;;;;5014870;28;20207;-58
2020/12/08 06:38:40;;;;;;;5.70;5.30;;;5.00;59.70;;;;;;5011729;28;20240;-60
2020/12/08 06:41:06;;;;;;;4.93;4.53;;;5.00;59.60;;;;;;5008651;28;20207;-62
2020/12/08 06:43:41;;;;;;;4.97;4.60;;;5.00;59.50;;;;;;5015507;28;20223;-59
2020/12/08 06:46:09;;;;;;;4.87;4.47;;;5.10;59.50;;;;;;5015501;28;20273;-61
2020/12/08 06:48:39;;;;;;;4.43;4.10;;;5.10;59.50;;;;;;5013442;28;20206;-58
2020/12/08 06:51:17;;;;;;;4.60;4.20;;;5.10;59.40;;;;;;5007358;28;20324;-60
2020/12/08 06:53:44;;;;;;;5.10;4.70;;;5.10;59.40;;;;;;5015658;28;20760;-60
2020/12/08 06:56:10;;;;;;;5.00;4.60;;;5.10;59.20;;;;;;5012761;28;20676;-62
2020/12/08 06:58:46;;;;;;;4.87;4.47;;;5.20;59.20;;;;;;5011425;28;20565;-61
2020/12/08 07:01:13;;;;;;;5.27;4.87;;;5.20;59.20;;;;;;5006088;28;20264;-58
2020/12/08 07:03:40;;;;;;;5.47;5.07;;;5.20;59.20;;;;;;5002425;28;20261;-58
2020/12/08 07:06:07;;;;;;;5.07;4.67;;;5.20;59.20;;;;;;5001942;28;20218;-61
2020/12/08 07:08:37;;;;;;;5.63;5.00;;;5.20;59.20;;;;;;5004709;28;20207;-62
2020/12/08 07:11:04;;;;;;;4.80;4.40;;;5.20;59.20;;;;;;5004198;28;20218;-63
2020/12/08 07:13:30;;;;;;;5.10;4.70;;;5.20;59.20;;;;;;5004097;28;20203;-61
2020/12/08 07:15:57;;;;;;;5.43;4.70;;;5.20;59.10;;;;;;5009407;28;20210;-60
2020/12/08 07:18:23;;;;;;;4.83;4.43;;;5.20;59.10;;;;;;5005289;28;20218;-60
2020/12/08 07:20:54;;;;;;;5.10;4.70;;;5.30;59.00;;;;;;5003375;28;20695;-60
2020/12/08 07:23:20;;;;;;;4.73;4.33;;;5.30;59.00;;;;;;5006279;28;20222;-61
2020/12/08 07:25:47;;;;;;;5.23;4.83;;;5.30;59.10;;;;;;5007713;28;20210;-60
2020/12/08 07:28:13;;;;;;;6.07;5.47;;;5.30;59.10;;;;;;5002937;28;20668;-61
2020/12/08 07:30:40;;;;;;;6.43;5.83;;;5.30;59.10;;;;;;5001547;28;20222;-60
2020/12/08 07:33:14;;;;;;;5.50;5.00;;;5.30;59.10;;;;;;5002498;28;20847;-60
2020/12/08 07:35:44;;;;;;;5.77;5.17;;;5.30;59.00;;;;;;5001839;28;20389;-60
2020/12/08 07:38:13;;;;;;;5.60;5.13;;;5.30;58.90;;;;;;5000442;28;20723;-61
2020/12/08 07:40:41;;;;;;;6.03;5.53;;;5.40;59.00;;;;;;5004011;28;20217;-59
2020/12/08 07:43:08;;;;;;;6.37;5.77;;;5.40;58.90;;;;;;5007115;28;20237;-60
2020/12/08 07:45:43;;;;;;;5.90;5.40;;;5.40;58.80;;;;;;5003514;28;20218;-61
2020/12/08 07:48:11;;;;;;;6.13;5.63;;;5.30;58.70;;;;;;5010027;28;20294;-63
2020/12/08 07:50:38;;;;;;;5.93;5.43;;;5.40;58.60;;;;;;5016107;28;20217;-63
2020/12/08 07:53:09;;;;;;;5.90;5.40;;;5.40;58.50;;;;;;5014625;28;20207;-62
2020/12/08 07:55:40;;;;;;;6.93;5.20;;;5.30;58.40;;;;;;5010847;28;20227;-59
2020/12/08 07:58:08;;;;;;;6.23;5.73;;;5.30;58.50;;;;;;5009756;28;20202;-61
2020/12/08 08:00:34;;;;;;;5.80;5.30;;;5.30;58.50;;;;;;5008851;28;20276;-58
2020/12/08 08:03:01;;;;;;;6.00;5.50;;;5.30;58.50;;;;;;5017221;28;20230;-59
2020/12/08 08:05:27;;;;;;;5.53;5.07;;;5.20;58.50;;;;;;5015255;28;20295;-59
2020/12/08 08:07:54;;;;;;;6.47;5.90;;;5.20;58.60;;;;;;5008866;28;20211;-60
2020/12/08 08:10:20;;;;;;;6.47;5.97;;;5.20;58.60;;;;;;5011132;28;20343;-59
2020/12/08 08:12:48;;;;;;;5.90;5.40;;;5.20;58.60;;;;;;5013403;28;20203;-59
2020/12/08 08:15:14;;;;;;;6.10;5.50;;;5.20;58.70;;;;;;5016961;28;20248;-61
2020/12/08 08:17:41;;;;;;;5.57;5.17;;;5.30;58.80;;;;;;5014821;28;20199;-61
2020/12/08 08:20:07;;;;;;;6.27;5.77;;;5.20;58.80;;;;;;5017262;28;20207;-61
2020/12/08 08:25:18;;;;;;;6.60;6.00;;;5.30;58.80;;;;;;5035671;28;20335;-56
2020/12/08 08:27:44;;;;;;;6.27;5.77;;;5.40;58.80;;;;;;5039680;28;20399;-63
2020/12/08 08:30:12;;;;;;;6.10;5.60;;;5.40;58.80;;;;;;5044533;28;20202;-62
2020/12/08 08:32:38;;;;;;;6.70;6.00;;;5.40;58.80;;;;;;5044432;28;20259;-62
2020/12/08 08:35:05;;;;;;;6.77;6.27;;;5.40;58.80;;;;;;5044369;28;20426;-61
2020/12/08 08:37:32;;;;;;;6.20;5.70;;;5.40;58.80;;;;;;5047153;28;20676;-62
2020/12/08 08:39:58;;;;;;;6.40;5.90;;;5.50;59.00;;;;;;5044231;28;20252;-65
2020/12/08 08:42:25;;;;;;;6.37;5.87;;;5.50;59.00;;;;;;5040264;28;20229;-65
2020/12/08 08:44:51;;;;;;;6.80;6.20;;;5.60;59.00;;;;;;5048534;28;20253;-64
2020/12/08 08:47:19;;;;;;;6.07;5.67;;;5.70;59.00;;;;;;5044219;28;20232;-64
2020/12/08 08:49:45;;;;;;;6.30;5.80;;;5.70;58.90;;;;;;5040888;28;20211;-62
2020/12/08 08:52:12;;;;;;;6.93;6.33;;;5.80;58.90;;;;;;5041127;28;20202;-64
2020/12/08 08:54:38;;;;;;;8.90;6.50;;;5.90;58.70;;;;;;5045162;28;20221;-65
2020/12/08 08:57:05;;;;;;;6.70;6.10;;;5.90;58.60;;;;;;5044885;28;20761;-64
2020/12/08 08:59:31;;;;;;;7.13;6.60;;;6.00;58.50;;;;;;5043645;28;20201;-65
2020/12/08 09:01:58;;;;;;;6.93;6.33;;;6.00;58.40;;;;;;5038336;28;20695;-65
2020/12/08 09:04:25;;;;;;;6.87;6.37;;;6.00;58.40;;;;;;5042444;28;20228;-64
2020/12/08 09:06:51;;;;;;;7.13;6.43;;;6.00;58.50;;;;;;5045416;28;20220;-64
2020/12/08 09:09:18;;;;;;;7.07;6.47;;;6.00;58.50;;;;;;5043214;28;20209;-65
2020/12/08 09:11:44;;;;;;;7.40;6.80;;;6.10;58.50;;;;;;5041135;28;20210;-65
2020/12/08 09:14:11;;;;;;;6.40;5.90;;;6.10;58.50;;;;;;5041618;28;20218;-64
2020/12/08 09:16:39;;;;;;;6.97;6.33;;;6.10;58.40;;;;;;5042444;28;20209;-65
2020/12/08 09:19:06;;;;;;;7.03;6.43;;;6.20;58.40;;;;;;5041193;28;20214;-64
2020/12/08 09:21:33;;;;;;;6.63;6.03;;;6.20;58.40;;;;;;5042178;28;20202;-65
2020/12/08 09:23:59;;;;;;;7.13;6.50;;;6.20;58.40;;;;;;5038735;28;20309;-64
2020/12/08 09:26:26;;;;;;;7.20;6.60;;;6.30;58.50;;;;;;5041254;28;20670;-64
2020/12/08 09:28:53;;;;;;;7.50;6.90;;;6.30;58.40;;;;;;5042103;28;20210;-63
2020/12/08 09:31:19;;;;;;;7.80;7.10;;;6.40;58.40;;;;;;5038427;28;20213;-64
2020/12/08 09:33:51;;;;;;;7.83;7.13;;;6.40;58.90;;;;;;5040433;28;20245;-64
2020/12/08 09:36:17;;;;;;;6.57;6.07;;;6.50;58.20;;;;;;5043659;28;20619;-62
2020/12/08 09:38:45;;;;;;;6.73;6.23;;;6.50;58.30;;;;;;5042258;28;20757;-63
2020/12/08 09:41:11;;;;;;;7.47;5.63;;;6.50;58.40;;;;;;5036622;28;20678;-64
2020/12/08 09:43:38;;;;;;;8.03;6.10;;;6.60;58.50;;;;;;5038474;28;20367;-63
2020/12/08 09:46:04;;;;;;;6.20;5.70;;;6.70;58.50;;;;;;5038783;28;20704;-63
2020/12/08 09:48:31;;;;;;;6.47;5.97;;;6.80;58.60;;;;;;5041284;28;20214;-63
2020/12/08 09:50:57;;;;;;;6.20;5.70;;;6.80;58.40;;;;;;5043980;28;20206;-65
2020/12/08 09:53:27;;;;;;;6.33;5.83;;;6.90;58.30;;;;;;5041442;28;20238;-62
2020/12/08 09:55:54;;;;;;;6.47;5.90;;;7.00;58.10;;;;;;5043070;28;20252;-63
2020/12/08 09:58:20;;;;;;;6.47;5.97;;;7.10;58.10;;;;;;5044290;28;20296;-64
2020/12/08 10:00:47;;;;;;;6.07;5.57;;;7.20;58.00;;;;;;5038040;28;20214;-61
2020/12/08 10:03:14;;;;;;;5.60;5.20;;;7.20;57.90;;;;;;5038517;28;20702;-61
2020/12/08 10:05:40;;;;;;;6.10;5.63;;;7.30;57.80;;;;;;5045703;28;20216;-61
2020/12/08 10:08:07;;;;;;;6.37;5.80;;;7.30;57.80;;;;;;5043426;28;20222;-63
2020/12/08 10:10:34;;;;;;;6.13;5.63;;;7.40;57.70;;;;;;5043894;28;20224;-61
2020/12/08 10:13:01;;;;;;;5.77;5.27;;;7.40;57.70;;;;;;5047335;28;20232;-60
2020/12/08 10:15:28;;;;;;;6.40;5.87;;;7.50;57.60;;;;;;5048280;28;20209;-61
2020/12/08 10:17:55;;;;;;;6.43;5.93;;;7.50;57.50;;;;;;5047489;28;20267;-61
2020/12/08 10:20:21;;;;;;;7.40;6.00;;;7.60;57.50;;;;;;5044748;28;20205;-61
2020/12/08 10:22:48;;;;;;;6.20;5.60;;;7.60;57.30;;;;;;5039455;28;20291;-59
2020/12/08 10:25:14;;;;;;;6.63;6.00;;;7.70;57.20;;;;;;5042561;28;20213;-63
2020/12/08 10:27:42;;;;;;;6.40;5.80;;;7.70;57.00;;;;;;5043957;28;20259;-61
2020/12/08 10:30:11;;;;;;;6.70;6.10;;;7.70;56.90;;;;;;5045419;28;20593;-56
2020/12/08 10:32:37;;;;;;;6.63;6.03;;;7.70;56.90;;;;;;5042303;28;20706;-62
2020/12/08 10:35:04;;;;;;;6.43;5.83;;;7.70;56.80;;;;;;5039856;28;20724;-62
2020/12/08 10:37:31;;;;;;;6.10;5.60;;;7.60;56.80;;;;;;5041513;28;20579;-62
2020/12/08 10:39:57;;;;;;;6.17;5.57;;;7.70;56.90;;;;;;5039635;28;20208;-63
2020/12/08 10:42:24;;;;;;;5.63;5.13;;;7.70;56.90;;;;;;5035522;28;20229;-63
2020/12/08 10:44:50;;;;;;;7.10;6.40;;;7.70;56.90;;;;;;5039743;28;20770;-62
2020/12/08 10:47:17;;;;;;;6.07;5.47;;;7.70;56.90;;;;;;5043861;28;20221;-62
2020/12/08 10:49:44;;;;;;;6.07;5.57;;;7.80;57.00;;;;;;5040360;28;20781;-62
2020/12/08 10:52:10;;;;;;;6.00;5.50;;;7.80;56.90;;;;;;5042958;28;20201;-63
2020/12/08 10:54:37;;;;;;;5.83;5.37;;;7.90;57.00;;;;;;5046790;28;20236;-62
2020/12/08 10:57:04;;;;;;;6.80;5.63;;;8.00;57.10;;;;;;5040558;28;20220;-61
2020/12/08 10:59:30;;;;;;;5.87;5.47;;;8.00;57.10;;;;;;5038670;28;20274;-62
2020/12/08 11:01:57;;;;;;;5.97;5.57;;;8.10;56.90;;;;;;5037626;28;20289;-60
2020/12/08 11:04:25;;;;;;;6.50;5.90;;;8.20;56.80;;;;;;5040484;28;20570;-63
2020/12/08 11:06:51;;;;;;;6.47;5.90;;;8.20;56.60;;;;;;5039202;28;20237;-61
2020/12/08 11:09:18;;;;;;;6.27;5.70;;;8.30;56.50;;;;;;5039447;28;20210;-61
2020/12/08 11:11:44;;;;;;;5.27;4.87;;;8.30;56.30;;;;;;5037063;28;20209;-61
2020/12/08 11:14:11;;;;;;;6.10;5.50;;;8.30;56.10;;;;;;5037249;28;21122;-62
2020/12/08 11:16:39;;;;;;;5.67;5.17;;;8.30;56.00;;;;;;5038209;28;20209;-61
2020/12/08 11:19:07;;;;;;;5.97;5.47;;;8.40;56.00;;;;;;5039105;28;20202;-62
2020/12/08 11:21:36;;;;;;;5.30;4.87;;;8.40;55.90;;;;;;5034295;28;20225;-62
2020/12/08 11:24:03;;;;;;;5.30;4.90;;;8.40;55.80;;;;;;5037099;28;20233;-72
2020/12/08 11:26:31;;;;;;;5.37;4.97;;;8.40;55.80;;;;;;5037280;28;20213;-61
2020/12/08 11:28:58;;;;;;;5.07;4.67;;;8.40;55.80;;;;;;5038542;28;20221;-60
2020/12/08 11:31:25;;;;;;;5.60;5.10;;;8.40;55.70;;;;;;5040837;28;22030;-66
2020/12/08 11:33:51;;;;;;;5.73;5.23;;;8.40;55.80;;;;;;5037109;28;20225;-69
2020/12/08 11:36:18;;;;;;;5.10;4.70;;;8.40;55.70;;;;;;5035164;28;20206;-58
2020/12/08 11:38:50;;;;;;;5.00;4.60;;;8.40;55.70;;;;;;5038901;28;20216;-67
2020/12/08 11:41:17;;;;;;;5.20;4.80;;;8.30;55.80;;;;;;5040242;28;20249;-66
2020/12/08 11:43:44;;;;;;;5.27;4.80;;;8.40;55.90;;;;;;5044621;28;20263;-61
2020/12/08 11:46:12;;;;;;;5.23;4.70;;;8.40;55.90;;;;;;5043044;28;20214;-61
2020/12/08 11:48:43;;;;;;;4.77;4.37;;;8.50;55.80;;;;;;5037632;28;20220;-61
2020/12/08 11:51:10;;;;;;;4.93;4.47;;;8.50;55.40;;;;;;5035204;28;20674;-61
2020/12/08 11:53:36;;;;;;;5.30;4.80;;;8.50;55.60;;;;;;5037189;28;20237;-62
2020/12/08 11:56:04;;;;;;;5.13;4.70;;;8.50;55.60;;;;;;5037232;28;20613;-61
2020/12/08 11:58:31;;;;;;;5.20;4.67;;;8.50;56.30;;;;;;5036120;28;20201;-62
2020/12/08 12:00:57;;;;;;;5.73;5.13;;;8.50;55.60;;;;;;5038868;28;20206;-61
2020/12/08 12:03:24;;;;;;;5.00;4.60;;;8.60;55.50;;;;;;5039065;28;20252;-60
2020/12/08 12:05:50;;;;;;;4.93;4.53;;;8.60;55.50;;;;;;5043319;28;20209;-59
2020/12/08 12:08:17;;;;;;;5.50;5.00;;;8.60;55.50;;;;;;5042545;28;20706;-61
2020/12/08 12:10:44;;;;;;;6.03;5.07;;;8.60;55.40;;;;;;5040296;28;20222;-60
2020/12/08 12:13:11;;;;;;;5.00;4.60;;;8.60;55.50;;;;;;5043279;28;20638;-61
2020/12/08 12:15:38;;;;;;;4.63;4.23;;;8.60;55.50;;;;;;5044587;28;20206;-61
2020/12/08 12:18:04;;;;;;;4.63;4.33;;;8.60;55.50;;;;;;5044741;28;20214;-62
2020/12/08 12:20:30;;;;;;;5.10;4.70;;;8.60;55.50;;;;;;5041633;28;20618;-59
2020/12/08 12:22:57;;;;;;;4.77;4.37;;;8.60;55.50;;;;;;5034906;28;20242;-60
2020/12/08 12:25:24;;;;;;;5.00;4.47;;;8.60;55.50;;;;;;5037266;28;20215;-61
2020/12/08 12:27:56;;;;;;;5.03;4.53;;;8.70;55.50;;;;;;5036138;28;20303;-63
2020/12/08 12:30:27;;;;;;;5.20;4.70;;;8.70;55.50;;;;;;5036482;28;21512;-61
2020/12/08 12:33:06;;;;;;;5.20;4.70;;;8.70;55.20;;;;;;5035262;28;20205;-61
2020/12/08 12:35:41;;;;;;;4.60;4.20;;;8.70;55.20;;;;;;5039101;28;20202;-63
2020/12/08 12:38:08;;;;;;;4.53;4.13;;;8.80;55.10;;;;;;5040088;28;20562;-61
2020/12/08 12:40:34;;;;;;;4.77;4.37;;;8.80;55.10;;;;;;5036833;28;20595;-61
2020/12/08 12:43:01;;;;;;;6.03;4.33;;;8.80;55.00;;;;;;5037964;28;20350;-61
2020/12/08 12:45:29;;;;;;;5.77;5.00;;;8.80;55.00;;;;;;5040980;28;20953;-66
2020/12/08 12:47:55;;;;;;;6.93;5.30;;;8.80;55.00;;;;;;5039980;28;20213;-66
2020/12/08 12:50:23;;;;;;;5.60;5.17;;;8.80;55.00;;;;;;5037891;28;20222;-66
2020/12/08 12:52:50;;;;;;;5.60;5.10;;;8.70;55.00;;;;;;5037908;28;20249;-65
2020/12/08 12:55:17;;;;;;;6.60;5.87;;;8.70;55.00;;;;;;5038664;28;20232;-65
2020/12/08 12:57:46;;;;;;;6.77;6.17;;;8.70;55.10;;;;;;5037032;28;20208;-59
2020/12/08 13:00:12;;;;;;;6.87;6.37;;;8.70;55.10;;;;;;5034191;28;20206;-60
2020/12/08 13:02:40;;;;;;;7.37;6.67;;;8.60;55.10;;;;;;5040650;28;20205;-61